Sremska Mitrovica, Serbia
Current Conditions -  °F | °C
As of 8:00 PM on Monday 20 Oct 2014 (Local Time) from LYBT Reporting Station
Clear Clear  
Wind Chill: 61°   Ceiling: Unl
Heat Index: 61°   Visibility: 6mi
Dew Point: 55°   Wind: 2mph
Humidity: 82%   Direction: 180°S
Pressure: 30.03"   Gusts: NA
Location:  44.98°N, 19.61°E
Report Text: LYBT 201800Z 18002KT CAVOK 16/13 Q1017 NOSIG
Loading
Personal Weather Stations






























Interactive Weather Map
Tropical Storm Tracking
New forecast layout! Learn more

10-Day Weather Forecast

Advertisements
Track Severe Weather on mobile